sensor_id;sensor_type;location;lat;lon;timestamp;pressure;altitude;pressure_sealevel;temperature;humidity
52291;BME280;39663;45.432;28.050;2023-02-20T00:00:19;101102.50;;;15.50;40.52
52291;BME280;39663;45.432;28.050;2023-02-20T00:00:50;101103.25;;;15.10;40.27
52291;BME280;39663;45.432;28.050;2023-02-20T00:01:23;101099.89;;;15.36;40.14
52291;BME280;39663;45.432;28.050;2023-02-20T00:01:55;101107.92;;;15.15;40.57
52291;BME280;39663;45.432;28.050;2023-02-20T00:02:27;101108.92;;;15.31;40.06
52291;BME280;39663;45.432;28.050;2023-02-20T00:02:59;101107.58;;;15.26;40.14
52291;BME280;39663;45.432;28.050;2023-02-20T00:03:30;101104.20;;;15.34;40.52
52291;BME280;39663;45.432;28.050;2023-02-20T00:04:02;101109.35;;;15.14;40.25
52291;BME280;39663;45.432;28.050;2023-02-20T00:04:33;101104.50;;;15.27;39.94
52291;BME280;39663;45.432;28.050;2023-02-20T00:05:05;101111.65;;;15.26;40.03
52291;BME280;39663;45.432;28.050;2023-02-20T00:05:37;101108.59;;;15.38;40.48
52291;BME280;39663;45.432;28.050;2023-02-20T00:06:08;101108.77;;;15.05;40.49
52291;BME280;39663;45.432;28.050;2023-02-20T00:06:40;101109.16;;;15.33;40.38
52291;BME280;39663;45.432;28.050;2023-02-20T00:07:11;101113.31;;;15.05;40.46
52291;BME280;39663;45.432;28.050;2023-02-20T00:07:43;101115.84;;;15.18;40.34
52291;BME280;39663;45.432;28.050;2023-02-20T00:08:15;101115.23;;;15.03;40.74
52291;BME280;39663;45.432;28.050;2023-02-20T00:08:46;101118.00;;;15.38;40.72
52291;BME280;39663;45.432;28.050;2023-02-20T00:09:18;101119.87;;;14.97;40.59
52291;BME280;39663;45.432;28.050;2023-02-20T00:09:50;101112.41;;;15.18;40.52
52291;BME280;39663;45.432;28.050;2023-02-20T00:10:21;101118.39;;;15.22;40.74
52291;BME280;39663;45.432;28.050;2023-02-20T00:10:53;101114.68;;;15.25;40.63
52291;BME280;39663;45.432;28.050;2023-02-20T00:11:24;101122.45;;;15.23;40.59
52291;BME280;39663;45.432;28.050;2023-02-20T00:11:56;101118.74;;;15.20;40.42
52291;BME280;39663;45.432;28.050;2023-02-20T00:12:27;101118.86;;;15.25;40.08
52291;BME280;39663;45.432;28.050;2023-02-20T00:12:59;101116.42;;;14.98;40.30
52291;BME280;39663;45.432;28.050;2023-02-20T00:13:30;101114.40;;;14.97;40.45
52291;BME280;39663;45.432;28.050;2023-02-20T00:14:02;101114.94;;;14.96;40.80
52291;BME280;39663;45.432;28.050;2023-02-20T00:14:34;101116.38;;;14.99;40.89
52291;BME280;39663;45.432;28.050;2023-02-20T00:15:07;101115.21;;;14.97;40.63
52291;BME280;39663;45.432;28.050;2023-02-20T00:15:39;101119.91;;;15.31;40.54
52291;BME280;39663;45.432;28.050;2023-02-20T00:16:10;101114.29;;;14.94;40.86
52291;BME280;39663;45.432;28.050;2023-02-20T00:16:45;101113.09;;;15.07;40.93
52291;BME280;39663;45.432;28.050;2023-02-20T00:17:17;101126.64;;;14.88;40.90
52291;BME280;39663;45.432;28.050;2023-02-20T00:17:49;101123.29;;;14.92;40.59
52291;BME280;39663;45.432;28.050;2023-02-20T00:18:21;101116.34;;;15.37;40.64
52291;BME280;39663;45.432;28.050;2023-02-20T00:18:52;101118.56;;;14.96;40.92
52291;BME280;39663;45.432;28.050;2023-02-20T00:19:24;101116.10;;;15.11;40.94
52291;BME280;39663;45.432;28.050;2023-02-20T00:19:55;101115.79;;;15.09;41.00
52291;BME280;39663;45.432;28.050;2023-02-20T00:20:27;101117.19;;;15.18;40.97
52291;BME280;39663;45.432;28.050;2023-02-20T00:20:58;101119.24;;;15.11;41.03
52291;BME280;39663;45.432;28.050;2023-02-20T00:21:30;101113.74;;;14.90;40.77
52291;BME280;39663;45.432;28.050;2023-02-20T00:22:01;101111.46;;;15.09;40.91
52291;BME280;39663;45.432;28.050;2023-02-20T00:22:33;101110.04;;;15.31;41.00
52291;BME280;39663;45.432;28.050;2023-02-20T00:23:05;101111.93;;;15.28;40.89
52291;BME280;39663;45.432;28.050;2023-02-20T00:23:36;101122.16;;;15.31;41.03
52291;BME280;39663;45.432;28.050;2023-02-20T00:24:08;101115.76;;;15.26;40.73
52291;BME280;39663;45.432;28.050;2023-02-20T00:24:40;101120.95;;;14.88;40.97
52291;BME280;39663;45.432;28.050;2023-02-20T00:25:13;101117.03;;;14.93;41.11
52291;BME280;39663;45.432;28.050;2023-02-20T00:25:45;101112.86;;;15.06;41.17
52291;BME280;39663;45.432;28.050;2023-02-20T00:26:17;101120.24;;;15.05;41.08
52291;BME280;39663;45.432;28.050;2023-02-20T00:26:50;101113.82;;;15.12;41.07
52291;BME280;39663;45.432;28.050;2023-02-20T00:27:22;101116.51;;;15.27;41.24
52291;BME280;39663;45.432;28.050;2023-02-20T00:27:53;101112.42;;;15.31;41.27
52291;BME280;39663;45.432;28.050;2023-02-20T00:28:25;101113.43;;;15.26;41.30
52291;BME280;39663;45.432;28.050;2023-02-20T00:28:56;101113.35;;;14.83;40.98
52291;BME280;39663;45.432;28.050;2023-02-20T00:29:28;101112.68;;;15.28;40.93
52291;BME280;39663;45.432;28.050;2023-02-20T00:29:59;101111.39;;;15.31;40.87
52291;BME280;39663;45.432;28.050;2023-02-20T00:30:31;101116.98;;;15.07;41.27
52291;BME280;39663;45.432;28.050;2023-02-20T00:31:02;101116.00;;;15.12;41.16
52291;BME280;39663;45.432;28.050;2023-02-20T00:31:34;101117.41;;;15.06;41.13
52291;BME280;39663;45.432;28.050;2023-02-20T00:32:06;101120.14;;;14.80;41.08
52291;BME280;39663;45.432;28.050;2023-02-20T00:32:37;101117.84;;;15.01;41.24
52291;BME280;39663;45.432;28.050;2023-02-20T00:33:09;101126.86;;;14.84;41.26
52291;BME280;39663;45.432;28.050;2023-02-20T00:33:40;101131.16;;;15.20;41.24
52291;BME280;39663;45.432;28.050;2023-02-20T00:34:12;101129.63;;;14.98;41.04
52291;BME280;39663;45.432;28.050;2023-02-20T00:34:43;101130.26;;;15.17;41.24
52291;BME280;39663;45.432;28.050;2023-02-20T00:35:15;101134.58;;;15.01;41.10
52291;BME280;39663;45.432;28.050;2023-02-20T00:35:47;101138.06;;;15.20;41.28
52291;BME280;39663;45.432;28.050;2023-02-20T00:36:20;101139.30;;;15.20;41.19
52291;BME280;39663;45.432;28.050;2023-02-20T00:36:51;101143.23;;;15.00;41.43
52291;BME280;39663;45.432;28.050;2023-02-20T00:37:23;101138.60;;;15.16;41.19
52291;BME280;39663;45.432;28.050;2023-02-20T00:37:55;101142.40;;;14.83;41.34
52291;BME280;39663;45.432;28.050;2023-02-20T00:38:27;101142.81;;;15.16;41.22
52291;BME280;39663;45.432;28.050;2023-02-20T00:38:58;101149.25;;;15.11;41.53
52291;BME280;39663;45.432;28.050;2023-02-20T00:39:31;101149.55;;;15.01;41.43
52291;BME280;39663;45.432;28.050;2023-02-20T00:40:03;101151.62;;;15.15;41.52
52291;BME280;39663;45.432;28.050;2023-02-20T00:40:34;101152.95;;;15.19;41.17
52291;BME280;39663;45.432;28.050;2023-02-20T00:41:06;101161.46;;;14.94;41.42
52291;BME280;39663;45.432;28.050;2023-02-20T00:41:37;101154.86;;;14.97;40.92
52291;BME280;39663;45.432;28.050;2023-02-20T00:42:09;101164.86;;;14.96;41.42
52291;BME280;39663;45.432;28.050;2023-02-20T00:42:41;101164.63;;;15.16;41.64
52291;BME280;39663;45.432;28.050;2023-02-20T00:43:12;101161.96;;;15.17;41.67
52291;BME280;39663;45.432;28.050;2023-02-20T00:43:44;101161.08;;;15.08;41.04
52291;BME280;39663;45.432;28.050;2023-02-20T00:44:16;101159.82;;;15.10;41.33
52291;BME280;39663;45.432;28.050;2023-02-20T00:44:48;101165.81;;;14.91;41.47
52291;BME280;39663;45.432;28.050;2023-02-20T00:45:20;101165.77;;;14.93;41.26
52291;BME280;39663;45.432;28.050;2023-02-20T00:45:51;101172.09;;;15.17;41.67
52291;BME280;39663;45.432;28.050;2023-02-20T00:46:23;101171.67;;;14.73;41.36
52291;BME280;39663;45.432;28.050;2023-02-20T00:46:54;101172.49;;;14.97;41.60
52291;BME280;39663;45.432;28.050;2023-02-20T00:47:26;101174.01;;;14.97;41.66
52291;BME280;39663;45.432;28.050;2023-02-20T00:47:57;101173.58;;;14.85;41.72
52291;BME280;39663;45.432;28.050;2023-02-20T00:48:29;101171.31;;;15.09;41.66
52291;BME280;39663;45.432;28.050;2023-02-20T00:49:00;101175.33;;;15.12;41.74
52291;BME280;39663;45.432;28.050;2023-02-20T00:49:32;101175.55;;;15.09;41.76
52291;BME280;39663;45.432;28.050;2023-02-20T00:50:05;101171.22;;;15.08;41.74
52291;BME280;39663;45.432;28.050;2023-02-20T00:50:37;101173.95;;;15.12;41.61
52291;BME280;39663;45.432;28.050;2023-02-20T00:51:09;101174.06;;;14.88;41.84
52291;BME280;39663;45.432;28.050;2023-02-20T00:51:40;101173.24;;;15.05;41.67
52291;BME280;39663;45.432;28.050;2023-02-20T00:52:12;101173.61;;;15.07;41.61
52291;BME280;39663;45.432;28.050;2023-02-20T00:52:43;101178.36;;;15.12;41.74
52291;BME280;39663;45.432;28.050;2023-02-20T00:53:15;101172.71;;;14.89;41.49
52291;BME280;39663;45.432;28.050;2023-02-20T00:53:47;101176.93;;;15.13;41.68
52291;BME280;39663;45.432;28.050;2023-02-20T00:54:19;101172.37;;;14.85;41.67
52291;BME280;39663;45.432;28.050;2023-02-20T00:54:50;101171.52;;;14.86;41.83
52291;BME280;39663;45.432;28.050;2023-02-20T00:55:22;101173.32;;;14.90;41.88
52291;BME280;39663;45.432;28.050;2023-02-20T00:55:54;101174.21;;;14.94;41.89
52291;BME280;39663;45.432;28.050;2023-02-20T00:56:25;101174.88;;;15.10;41.78
52291;BME280;39663;45.432;28.050;2023-02-20T00:56:57;101176.71;;;15.08;41.74
52291;BME280;39663;45.432;28.050;2023-02-20T00:57:28;101178.02;;;14.89;41.87
52291;BME280;39663;45.432;28.050;2023-02-20T00:57:59;101175.11;;;14.78;41.95
52291;BME280;39663;45.432;28.050;2023-02-20T00:58:31;101171.45;;;14.90;41.77
52291;BME280;39663;45.432;28.050;2023-02-20T01:06:37;101169.79;;;14.69;42.60
52291;BME280;39663;45.432;28.050;2023-02-20T01:07:08;101169.31;;;14.74;42.61
52291;BME280;39663;45.432;28.050;2023-02-20T01:07:40;101172.41;;;14.74;42.68
52291;BME280;39663;45.432;28.050;2023-02-20T01:08:12;101170.21;;;15.01;42.47
52291;BME280;39663;45.432;28.050;2023-02-20T01:08:43;101169.74;;;14.78;42.67
52291;BME280;39663;45.432;28.050;2023-02-20T01:09:15;101168.49;;;14.98;42.67
52291;BME280;39663;45.432;28.050;2023-02-20T01:09:46;101164.80;;;14.82;42.46
52291;BME280;39663;45.432;28.050;2023-02-20T01:10:18;101157.74;;;14.81;42.33
52291;BME280;39663;45.432;28.050;2023-02-20T01:10:49;101157.61;;;14.84;42.50
52291;BME280;39663;45.432;28.050;2023-02-20T01:11:21;101162.81;;;14.82;42.25
52291;BME280;39663;45.432;28.050;2023-02-20T01:11:53;101158.93;;;14.98;41.92
52291;BME280;39663;45.432;28.050;2023-02-20T01:12:25;101159.51;;;14.98;42.29
52291;BME280;39663;45.432;28.050;2023-02-20T01:12:57;101164.30;;;15.01;42.32
52291;BME280;39663;45.432;28.050;2023-02-20T01:13:28;101160.95;;;14.81;42.44
52291;BME280;39663;45.432;28.050;2023-02-20T01:14:00;101165.36;;;14.80;42.11
52291;BME280;39663;45.432;28.050;2023-02-20T01:14:32;101167.03;;;14.63;42.40
52291;BME280;39663;45.432;28.050;2023-02-20T01:15:04;101170.20;;;14.89;42.37
52291;BME280;39663;45.432;28.050;2023-02-20T01:15:37;101176.72;;;14.82;42.34
52291;BME280;39663;45.432;28.050;2023-02-20T01:16:08;101177.91;;;14.80;42.31
52291;BME280;39663;45.432;28.050;2023-02-20T01:16:43;101179.53;;;14.82;42.40
52291;BME280;39663;45.432;28.050;2023-02-20T01:17:15;101180.36;;;15.03;42.41
52291;BME280;39663;45.432;28.050;2023-02-20T01:17:46;101178.78;;;15.02;42.42
52291;BME280;39663;45.432;28.050;2023-02-20T01:18:18;101178.77;;;14.83;42.49
52291;BME280;39663;45.432;28.050;2023-02-20T01:18:50;101179.45;;;14.84;42.25
52291;BME280;39663;45.432;28.050;2023-02-20T01:19:23;101176.33;;;14.91;42.16
52291;BME280;39663;45.432;28.050;2023-02-20T01:19:54;101184.52;;;14.86;42.24
52291;BME280;39663;45.432;28.050;2023-02-20T01:20:26;101176.42;;;14.63;42.15
52291;BME280;39663;45.432;28.050;2023-02-20T01:20:57;101182.86;;;15.09;42.36
52291;BME280;39663;45.432;28.050;2023-02-20T01:21:29;101187.17;;;14.86;42.32
52291;BME280;39663;45.432;28.050;2023-02-20T01:22:01;101187.90;;;15.07;42.36
52291;BME280;39663;45.432;28.050;2023-02-20T01:22:32;101189.88;;;14.84;42.44
52291;BME280;39663;45.432;28.050;2023-02-20T01:23:04;101193.03;;;14.87;42.37
52291;BME280;39663;45.432;28.050;2023-02-20T01:23:35;101193.15;;;14.66;42.40
52291;BME280;39663;45.432;28.050;2023-02-20T01:24:07;101198.01;;;14.66;42.46
52291;BME280;39663;45.432;28.050;2023-02-20T01:24:38;101196.70;;;14.61;41.75
52291;BME280;39663;45.432;28.050;2023-02-20T01:25:10;101200.46;;;14.79;42.33
52291;BME280;39663;45.432;28.050;2023-02-20T01:25:43;101198.97;;;14.81;42.01
52291;BME280;39663;45.432;28.050;2023-02-20T01:26:14;101204.26;;;14.73;42.16
52291;BME280;39663;45.432;28.050;2023-02-20T01:26:47;101202.80;;;14.81;42.24
52291;BME280;39663;45.432;28.050;2023-02-20T01:27:19;101205.03;;;14.83;42.39
52291;BME280;39663;45.432;28.050;2023-02-20T01:27:51;101210.50;;;14.82;42.48
52291;BME280;39663;45.432;28.050;2023-02-20T01:28:22;101206.77;;;14.85;42.34
52291;BME280;39663;45.432;28.050;2023-02-20T01:28:54;101211.74;;;14.80;42.25
52291;BME280;39663;45.432;28.050;2023-02-20T01:29:26;101209.44;;;14.78;42.28
52291;BME280;39663;45.432;28.050;2023-02-20T01:29:57;101212.71;;;14.79;42.38
52291;BME280;39663;45.432;28.050;2023-02-20T01:30:28;101216.42;;;14.79;42.44
52291;BME280;39663;45.432;28.050;2023-02-20T01:31:00;101218.91;;;14.84;42.51
52291;BME280;39663;45.432;28.050;2023-02-20T01:31:32;101218.78;;;14.61;42.55
52291;BME280;39663;45.432;28.050;2023-02-20T01:32:03;101220.77;;;14.74;42.40
52291;BME280;39663;45.432;28.050;2023-02-20T01:32:35;101222.23;;;14.82;42.50
52291;BME280;39663;45.432;28.050;2023-02-20T01:33:06;101220.57;;;14.67;42.54
52291;BME280;39663;45.432;28.050;2023-02-20T01:33:40;101223.61;;;14.84;42.54
52291;BME280;39663;45.432;28.050;2023-02-20T01:34:12;101228.72;;;14.81;42.55
52291;BME280;39663;45.432;28.050;2023-02-20T01:34:44;101226.46;;;14.75;42.58
52291;BME280;39663;45.432;28.050;2023-02-20T01:35:16;101231.53;;;14.55;42.58
52291;BME280;39663;45.432;28.050;2023-02-20T01:35:47;101234.02;;;14.57;42.60
52291;BME280;39663;45.432;28.050;2023-02-20T01:36:19;101234.04;;;14.75;42.48
52291;BME280;39663;45.432;28.050;2023-02-20T01:36:53;101233.39;;;14.76;42.63
52291;BME280;39663;45.432;28.050;2023-02-20T01:37:25;101236.51;;;14.60;42.48
52291;BME280;39663;45.432;28.050;2023-02-20T01:37:56;101236.91;;;14.77;42.58
52291;BME280;39663;45.432;28.050;2023-02-20T01:38:28;101239.38;;;14.96;42.61
52291;BME280;39663;45.432;28.050;2023-02-20T01:38:59;101241.95;;;14.78;42.61
52291;BME280;39663;45.432;28.050;2023-02-20T01:39:31;101244.52;;;14.79;42.55
52291;BME280;39663;45.432;28.050;2023-02-20T01:40:03;101245.62;;;14.60;42.71
52291;BME280;39663;45.432;28.050;2023-02-20T01:40:35;101245.23;;;14.79;42.26
52291;BME280;39663;45.432;28.050;2023-02-20T01:41:07;101242.79;;;14.74;42.49
52291;BME280;39663;45.432;28.050;2023-02-20T01:41:39;101245.05;;;14.75;42.69
52291;BME280;39663;45.432;28.050;2023-02-20T01:42:15;101239.54;;;14.92;42.55
52291;BME280;39663;45.432;28.050;2023-02-20T01:42:49;101242.58;;;14.78;42.62
52291;BME280;39663;45.432;28.050;2023-02-20T01:43:20;101241.66;;;14.54;42.75
52291;BME280;39663;45.432;28.050;2023-02-20T01:43:52;101240.43;;;14.59;42.66
52291;BME280;39663;45.432;28.050;2023-02-20T01:44:26;101240.88;;;14.97;42.68
52291;BME280;39663;45.432;28.050;2023-02-20T01:45:15;101243.20;;;14.76;42.33
52291;BME280;39663;45.432;28.050;2023-02-20T01:45:47;101247.20;;;14.73;42.61
52291;BME280;39663;45.432;28.050;2023-02-20T01:46:52;101246.11;;;14.72;42.18
52291;BME280;39663;45.432;28.050;2023-02-20T01:47:24;101249.76;;;14.51;42.60
52291;BME280;39663;45.432;28.050;2023-02-20T01:47:57;101253.39;;;14.50;42.72
52291;BME280;39663;45.432;28.050;2023-02-20T01:48:29;101250.99;;;14.70;42.70
52291;BME280;39663;45.432;28.050;2023-02-20T01:49:03;101253.10;;;14.70;42.78
52291;BME280;39663;45.432;28.050;2023-02-20T01:49:38;101253.29;;;14.58;42.78
52291;BME280;39663;45.432;28.050;2023-02-20T01:50:12;101258.08;;;14.91;42.72
52291;BME280;39663;45.432;28.050;2023-02-20T01:50:45;101249.89;;;14.69;42.67
52291;BME280;39663;45.432;28.050;2023-02-20T01:51:17;101254.28;;;14.94;42.71
52291;BME280;39663;45.432;28.050;2023-02-20T01:51:54;101252.05;;;14.74;42.71
52291;BME280;39663;45.432;28.050;2023-02-20T01:52:30;101260.97;;;14.90;42.70
52291;BME280;39663;45.432;28.050;2023-02-20T01:53:07;101263.09;;;14.89;42.30
52291;BME280;39663;45.432;28.050;2023-02-20T01:53:40;101264.26;;;14.63;42.47
52291;BME280;39663;45.432;28.050;2023-02-20T01:54:14;101264.82;;;14.72;42.61
52291;BME280;39663;45.432;28.050;2023-02-20T01:54:50;101267.00;;;14.70;42.72
52291;BME280;39663;45.432;28.050;2023-02-20T01:55:26;101266.83;;;14.65;42.41
52291;BME280;39663;45.432;28.050;2023-02-20T01:56:03;101265.56;;;14.85;42.71
52291;BME280;39663;45.432;28.050;2023-02-20T01:56:38;101264.56;;;14.60;42.55
52291;BME280;39663;45.432;28.050;2023-02-20T01:57:15;101266.12;;;14.63;42.72
52291;BME280;39663;45.432;28.050;2023-02-20T01:57:52;101265.88;;;14.67;42.75
52291;BME280;39663;45.432;28.050;2023-02-20T01:58:28;101264.55;;;14.68;42.72
52291;BME280;39663;45.432;28.050;2023-02-20T01:59:09;101262.70;;;14.64;42.53
52291;BME280;39663;45.432;28.050;2023-02-20T01:59:41;101262.33;;;14.64;42.68
52291;BME280;39663;45.432;28.050;2023-02-20T02:00:17;101266.14;;;14.67;42.41
52291;BME280;39663;45.432;28.050;2023-02-20T02:00:49;101262.82;;;14.47;42.68
52291;BME280;39663;45.432;28.050;2023-02-20T02:01:21;101264.30;;;14.65;42.75
52291;BME280;39663;45.432;28.050;2023-02-20T02:01:53;101263.70;;;14.83;42.73
52291;BME280;39663;45.432;28.050;2023-02-20T02:02:25;101263.82;;;14.65;42.51
52291;BME280;39663;45.432;28.050;2023-02-20T02:03:01;101263.22;;;14.70;42.74
52291;BME280;39663;45.432;28.050;2023-02-20T02:03:38;101263.54;;;14.39;42.79
52291;BME280;39663;45.432;28.050;2023-02-20T02:04:12;101265.79;;;14.64;42.92
52291;BME280;39663;45.432;28.050;2023-02-20T02:04:44;101272.25;;;14.66;42.80
52291;BME280;39663;45.432;28.050;2023-02-20T02:05:18;101274.67;;;14.66;42.78
52291;BME280;39663;45.432;28.050;2023-02-20T02:05:53;101278.77;;;14.67;42.81
52291;BME280;39663;45.432;28.050;2023-02-20T02:06:26;101285.13;;;14.65;42.74
52291;BME280;39663;45.432;28.050;2023-02-20T02:06:58;101291.48;;;14.46;42.89
52291;BME280;39663;45.432;28.050;2023-02-20T02:07:29;101296.47;;;14.60;42.92
52291;BME280;39663;45.432;28.050;2023-02-20T02:08:03;101299.52;;;14.46;42.82
52291;BME280;39663;45.432;28.050;2023-02-20T02:08:37;101299.16;;;14.63;42.86
52291;BME280;39663;45.432;28.050;2023-02-20T02:09:14;101301.24;;;14.66;42.85
52291;BME280;39663;45.432;28.050;2023-02-20T02:09:53;101306.47;;;14.68;42.86
52291;BME280;39663;45.432;28.050;2023-02-20T02:10:31;101309.31;;;14.70;42.86
52291;BME280;39663;45.432;28.050;2023-02-20T02:11:07;101310.23;;;14.68;42.86
52291;BME280;39663;45.432;28.050;2023-02-20T02:11:39;101310.49;;;14.69;42.87
52291;BME280;39663;45.432;28.050;2023-02-20T02:12:11;101307.70;;;14.44;42.80
52291;BME280;39663;45.432;28.050;2023-02-20T02:12:46;101310.29;;;14.46;42.78
52291;BME280;39663;45.432;28.050;2023-02-20T02:13:19;101313.68;;;14.66;42.68
52291;BME280;39663;45.432;28.050;2023-02-20T02:13:50;101312.23;;;14.64;42.80
52291;BME280;39663;45.432;28.050;2023-02-20T02:14:22;101313.15;;;14.65;42.78
52291;BME280;39663;45.432;28.050;2023-02-20T02:14:53;101313.94;;;14.63;42.74
52291;BME280;39663;45.432;28.050;2023-02-20T02:15:25;101312.37;;;14.62;42.79
52291;BME280;39663;45.432;28.050;2023-02-20T02:16:04;101314.79;;;14.63;42.83
52291;BME280;39663;45.432;28.050;2023-02-20T02:16:46;101314.25;;;14.66;42.85
52291;BME280;39663;45.432;28.050;2023-02-20T02:17:36;101311.01;;;14.60;42.93
52291;BME280;39663;45.432;28.050;2023-02-20T02:18:30;101308.52;;;14.67;42.82
52291;BME280;39663;45.432;28.050;2023-02-20T02:19:13;101309.97;;;14.65;42.96
52291;BME280;39663;45.432;28.050;2023-02-20T02:20:52;101311.36;;;14.46;42.83
52291;BME280;39663;45.432;28.050;2023-02-20T02:22:20;101316.55;;;14.46;42.80
52291;BME280;39663;45.432;28.050;2023-02-20T02:23:40;101322.95;;;14.63;42.89
52291;BME280;39663;45.432;28.050;2023-02-20T02:24:41;101324.74;;;14.65;42.82
52291;BME280;39663;45.432;28.050;2023-02-20T02:25:31;101328.88;;;14.64;42.94
52291;BME280;39663;45.432;28.050;2023-02-20T02:26:17;101329.57;;;14.60;42.96
52291;BME280;39663;45.432;28.050;2023-02-20T02:27:21;101328.20;;;14.82;42.75
52291;BME280;39663;45.432;28.050;2023-02-20T02:29:50;101332.14;;;14.63;42.44
52291;BME280;39663;45.432;28.050;2023-02-20T02:31:00;101337.07;;;14.63;42.87
52291;BME280;39663;45.432;28.050;2023-02-20T02:32:06;101330.43;;;14.60;42.98
52291;BME280;39663;45.432;28.050;2023-02-20T02:35:37;101340.86;;;14.68;43.01
52291;BME280;39663;45.432;28.050;2023-02-20T02:36:20;101345.02;;;14.78;42.76
52291;BME280;39663;45.432;28.050;2023-02-20T02:37:03;101344.87;;;14.60;42.89
52291;BME280;39663;45.432;28.050;2023-02-20T02:37:47;101340.76;;;14.79;42.91
52291;BME280;39663;45.432;28.050;2023-02-20T02:38:25;101339.16;;;14.81;42.98
52291;BME280;39663;45.432;28.050;2023-02-20T02:39:04;101338.72;;;14.62;43.03
52291;BME280;39663;45.432;28.050;2023-02-20T02:39:45;101334.71;;;14.66;42.97
52291;BME280;39663;45.432;28.050;2023-02-20T02:40:23;101335.39;;;14.81;43.04
52291;BME280;39663;45.432;28.050;2023-02-20T02:41:03;101335.96;;;14.66;43.04
52291;BME280;39663;45.432;28.050;2023-02-20T02:41:43;101333.26;;;14.79;43.11
52291;BME280;39663;45.432;28.050;2023-02-20T02:42:22;101334.67;;;14.63;43.03
52291;BME280;39663;45.432;28.050;2023-02-20T02:43:04;101336.33;;;14.80;42.99
52291;BME280;39663;45.432;28.050;2023-02-20T02:43:47;101336.00;;;14.52;43.15
52291;BME280;39663;45.432;28.050;2023-02-20T02:44:24;101340.47;;;14.57;42.98
52291;BME280;39663;45.432;28.050;2023-02-20T02:45:06;101340.86;;;14.59;43.04
52291;BME280;39663;45.432;28.050;2023-02-20T02:45:46;101341.00;;;14.60;43.07
52291;BME280;39663;45.432;28.050;2023-02-20T02:46:26;101343.36;;;14.58;43.04
52291;BME280;39663;45.432;28.050;2023-02-20T02:47:03;101341.55;;;14.59;42.94
52291;BME280;39663;45.432;28.050;2023-02-20T02:47:43;101341.51;;;14.54;43.05
52291;BME280;39663;45.432;28.050;2023-02-20T02:48:21;101342.78;;;14.58;43.10
52291;BME280;39663;45.432;28.050;2023-02-20T02:49:00;101341.26;;;14.54;42.99
52291;BME280;39663;45.432;28.050;2023-02-20T02:49:38;101341.16;;;14.51;43.07
52291;BME280;39663;45.432;28.050;2023-02-20T02:50:14;101342.12;;;14.47;43.07
52291;BME280;39663;45.432;28.050;2023-02-20T02:50:48;101341.54;;;14.48;43.02
52291;BME280;39663;45.432;28.050;2023-02-20T02:51:27;101341.40;;;14.47;43.10
52291;BME280;39663;45.432;28.050;2023-02-20T02:52:00;101340.68;;;14.50;43.10
52291;BME280;39663;45.432;28.050;2023-02-20T02:52:34;101338.88;;;14.49;43.08
52291;BME280;39663;45.432;28.050;2023-02-20T02:53:08;101340.47;;;14.49;43.09
52291;BME280;39663;45.432;28.050;2023-02-20T02:53:39;101340.21;;;14.50;43.12
52291;BME280;39663;45.432;28.050;2023-02-20T02:54:13;101340.17;;;14.46;43.01
52291;BME280;39663;45.432;28.050;2023-02-20T02:54:49;101340.66;;;14.44;43.11
52291;BME280;39663;45.432;28.050;2023-02-20T02:55:23;101337.84;;;14.30;42.99
52291;BME280;39663;45.432;28.050;2023-02-20T02:55:54;101342.87;;;14.22;43.04
52291;BME280;39663;45.432;28.050;2023-02-20T02:56:33;101341.66;;;14.43;43.24
52291;BME280;39663;45.432;28.050;2023-02-20T02:57:24;101343.98;;;14.45;43.09
52291;BME280;39663;45.432;28.050;2023-02-20T02:57:57;101346.60;;;14.42;43.11
52291;BME280;39663;45.432;28.050;2023-02-20T02:58:28;101347.05;;;14.41;43.15
52291;BME280;39663;45.432;28.050;2023-02-20T02:59:00;101350.43;;;14.59;42.97
52291;BME280;39663;45.432;28.050;2023-02-20T02:59:33;101351.50;;;14.48;43.12
52291;BME280;39663;45.432;28.050;2023-02-20T03:00:08;101352.42;;;14.67;43.12
52291;BME280;39663;45.432;28.050;2023-02-20T03:00:42;101352.42;;;14.66;43.18
52291;BME280;39663;45.432;28.050;2023-02-20T03:01:19;101353.38;;;14.63;43.17
52291;BME280;39663;45.432;28.050;2023-02-20T03:01:56;101354.67;;;14.46;43.00
52291;BME280;39663;45.432;28.050;2023-02-20T03:02:33;101350.95;;;14.65;43.16
52291;BME280;39663;45.432;28.050;2023-02-20T03:03:09;101353.21;;;14.62;43.14
52291;BME280;39663;45.432;28.050;2023-02-20T03:03:42;101354.98;;;14.44;43.08
52291;BME280;39663;45.432;28.050;2023-02-20T03:04:15;101355.86;;;14.64;43.12
52291;BME280;39663;45.432;28.050;2023-02-20T03:04:49;101356.33;;;14.70;43.18
52291;BME280;39663;45.432;28.050;2023-02-20T03:05:24;101357.10;;;14.44;43.12
52291;BME280;39663;45.432;28.050;2023-02-20T03:06:00;101358.00;;;14.51;43.12
52291;BME280;39663;45.432;28.050;2023-02-20T03:06:35;101358.66;;;14.43;43.04
52291;BME280;39663;45.432;28.050;2023-02-20T03:07:10;101359.90;;;14.46;43.22
52291;BME280;39663;45.432;28.050;2023-02-20T03:07:45;101361.35;;;14.40;43.18
52291;BME280;39663;45.432;28.050;2023-02-20T03:08:23;101363.24;;;14.50;43.14
52291;BME280;39663;45.432;28.050;2023-02-20T03:09:00;101365.44;;;14.42;43.19
52291;BME280;39663;45.432;28.050;2023-02-20T03:09:37;101366.25;;;14.42;43.18
52291;BME280;39663;45.432;28.050;2023-02-20T03:10:11;101366.08;;;14.64;43.14
52291;BME280;39663;45.432;28.050;2023-02-20T03:10:44;101367.66;;;14.47;43.17
52291;BME280;39663;45.432;28.050;2023-02-20T03:11:18;101369.76;;;14.63;43.14